Shanghai Dawn — 3FMN2 — position and weather

sailwx.info

Track history (hours):
 
Tides and Currents Weather Stations Pressure Air Temp Water Temp Dewpoint Dewpoint Depression Visibility Wind Speed Wind Dir Waves Ship Positions

Shanghai Dawn

Last reported at 2018-Jan-05 01:00 UTC. Time now 2018-Jan-19 09:20 UTC.
Position N 36°50' W 124°24'.
Warning: this ship's position is 14 days out of date.

Length 246 m; draft 7.8 m.

Type: Tanker. MMSI: 356075000.

Date/timePositionNaut miles runAvg speedWind from/ knotsBaromVisibWave heightAir tempDewpointWater temp
2018-Jan-05 01:00N 36°50' W 124°24'2312.1
2018-Jan-04 23:05N 37°04' W 124°01'312.1
2018-Jan-04 22:51N 37°06' W 123°58'812.1
2018-Jan-04 22:12N 37°10' W 123°50'411.9
2018-Jan-04 21:51N 37°13' W 123°45'412.0
2018-Jan-04 21:31N 37°15' W 123°41'712.2
2018-Jan-04 20:55N 37°19' W 123°33'512.2
2018-Jan-04 20:31N 37°21' W 123°28'612.1
2018-Jan-04 20:01N 37°25' W 123°22'1012.5
2018-Jan-04 19:14N 37°30' W 123°12'312.9
2018-Jan-04 19:00N 37°32' W 123°09'612.7
2018-Jan-04 18:30N 37°35' W 123°02'612.2
2018-Jan-04 18:01N 37°39' W 122°55'612.1
2018-Jan-04 17:30N 37°42' W 122°49'612.1
2018-Jan-04 17:01N 37°45' W 122°43'5 9.2
2018-Jan-04 16:31N 37°46' W 122°37'611.6
2018-Jan-04 16:01N 37°49' W 122°30'510.6
2018-Jan-04 15:31N 37°50' W 122°24'4 8.8
2018-Jan-04 15:01N 37°46' W 122°21'0 0.3
2018-Jan-04 14:30N 37°46' W 122°21'0 0.0
2018-Jan-04 14:00N 37°46' W 122°21'0 0.0
2018-Jan-04 13:30N 37°46' W 122°21'0 0.0
2018-Jan-04 13:00N 37°46' W 122°21'0 0.0
2018-Jan-04 12:30N 37°46' W 122°21'0 0.1
2018-Jan-04 12:00N 37°46' W 122°21'0 0.1
2018-Jan-04 11:30N 37°46' W 122°21'0 0.2
2018-Jan-04 11:00N 37°46' W 122°21'0 0.3
2018-Jan-04 10:30N 37°45' W 122°21'0 0.1
2018-Jan-04 10:00N 37°45' W 122°21'0 0.0
2018-Jan-04 09:30N 37°45' W 122°21'0 0.0
2018-Jan-04 09:00N 37°45' W 122°21'1 1.7
2018-Jan-04 08:30N 37°46' W 122°22'5 9.7
2018-Jan-04 08:00N 37°50' W 122°24'510.5
2018-Jan-04 07:30N 37°55' W 122°27'5 9.7
2018-Jan-04 07:00N 37°60' W 122°25'510.8
2018-Jan-04 06:30N 38°03' W 122°20'612.4
2018-Jan-04 06:00N 38°03' W 122°11'3 0.3
2018-Jan-03 19:47N 38°02' W 122°08'0 0.0
2018-Jan-03 12:41N 38°02' W 122°08'0 0.0
2018-Jan-02 06:53N 38°02' W 122°08'0 0.0
2018-Jan-02 06:23N 38°02' W 122°08'0 0.0
2017-Dec-31 07:41N 38°02' W 122°08'0 1.0
2017-Dec-31 07:30N 38°02' W 122°08'2 4.4
2017-Dec-31 07:00N 38°03' W 122°11'4 8.7
2017-Dec-31 06:30N 38°04' W 122°16'4 7.5
2017-Dec-31 06:00N 38°03' W 122°21'4 8.9
2017-Dec-31 05:30N 37°60' W 122°25'611.0
2017-Dec-31 05:00N 37°54' W 122°27'510.5
2017-Dec-31 04:30N 37°50' W 122°24'4 8.7
2017-Dec-31 04:00N 37°46' W 122°21'1 2.5
2017-Dec-31 03:30N 37°45' W 122°21'0 0.1
2017-Dec-31 03:00N 37°45' W 122°20'0 0.0
2017-Dec-31 02:30N 37°45' W 122°20'0 0.1
2017-Dec-31 02:00N 37°45' W 122°21'0 0.0
2017-Dec-31 01:30N 37°45' W 122°21'0 0.4
2017-Dec-31 01:00N 37°45' W 122°21'0 0.2
2017-Dec-31 00:30N 37°45' W 122°21'0 0.0
2017-Dec-31 00:00N 37°45' W 122°21'0 0.0
2017-Dec-30 23:30N 37°45' W 122°21'0 0.0
2017-Dec-30 23:00N 37°45' W 122°21'0 0.0
2017-Dec-30 22:30N 37°45' W 122°21'0 0.0
2017-Dec-30 22:00N 37°45' W 122°21'0 0.0
2017-Dec-30 21:30N 37°45' W 122°21'0 0.0
2017-Dec-30 21:00N 37°45' W 122°21'0 0.0
2017-Dec-30 20:27N 37°45' W 122°21'0 0.0
2017-Dec-30 20:00N 37°45' W 122°21'0 0.0
2017-Dec-30 19:30N 37°45' W 122°21'0 0.0
2017-Dec-30 18:57N 37°45' W 122°21'0 0.0
2017-Dec-30 18:30N 37°45' W 122°21'0 0.1
2017-Dec-30 18:00N 37°45' W 122°21'0 0.4
2017-Dec-30 17:30N 37°45' W 122°21'0 0.1
2017-Dec-30 17:00N 37°45' W 122°21'0 0.1
2017-Dec-30 16:30N 37°45' W 122°20'0 0.0
2017-Dec-30 16:00N 37°45' W 122°20'0 0.0
2017-Dec-30 15:27N 37°45' W 122°20'0 0.0
2017-Dec-30 15:00N 37°45' W 122°20'0 0.0
2017-Dec-30 14:30N 37°45' W 122°20'0 0.0
2017-Dec-30 14:00N 37°45' W 122°20'0 0.0
2017-Dec-30 13:30N 37°45' W 122°20'0 0.0
2017-Dec-30 13:00N 37°45' W 122°20'0 0.0
2017-Dec-30 12:30N 37°45' W 122°20'0 0.0
2017-Dec-30 12:00N 37°45' W 122°20'0 0.5
2017-Dec-30 11:30N 37°45' W 122°21'0 0.3
2017-Dec-30 11:00N 37°45' W 122°21'0 0.0
2017-Dec-30 10:30N 37°45' W 122°21'0 0.1
2017-Dec-30 10:00N 37°45' W 122°21'0 0.1
2017-Dec-30 09:30N 37°45' W 122°21'0 0.0
2017-Dec-30 09:00N 37°45' W 122°21'0 0.0
2017-Dec-30 08:30N 37°45' W 122°21'0 0.0
2017-Dec-30 08:00N 37°45' W 122°21'0 0.1
2017-Dec-30 07:30N 37°45' W 122°21'0 0.1
2017-Dec-30 07:00N 37°45' W 122°21'0 0.3
2017-Dec-30 06:30N 37°45' W 122°21'0 0.2
2017-Dec-30 06:00N 37°45' W 122°21'0 0.1
2017-Dec-30 05:30N 37°45' W 122°20'0 0.0
2017-Dec-30 05:00N 37°45' W 122°20'0 0.0
2017-Dec-30 04:30N 37°45' W 122°20'0 0.0
2017-Dec-30 04:00N 37°45' W 122°20'0 0.0
2017-Dec-30 03:30N 37°45' W 122°20'0 0.1
2017-Dec-30 03:00N 37°45' W 122°21'0 0.1
2017-Dec-30 02:30N 37°45' W 122°20'0 0.0
2017-Dec-30 02:00N 37°45' W 122°20'0 0.0
2017-Dec-30 01:30N 37°45' W 122°20'0 0.1
2017-Dec-30 01:00N 37°45' W 122°21'0 0.0
2017-Dec-30 00:30N 37°45' W 122°21'0 0.4
2017-Dec-30 00:00N 37°45' W 122°21'0 0.2
2017-Dec-29 23:30N 37°45' W 122°21'0 0.0
2017-Dec-29 23:00N 37°45' W 122°21'0 0.0
2017-Dec-29 22:30N 37°45' W 122°21'0 0.0
2017-Dec-29 22:00N 37°45' W 122°21'0 0.0
2017-Dec-29 21:30N 37°45' W 122°21'0 0.0
2017-Dec-29 21:00N 37°45' W 122°21'0 0.0
2017-Dec-29 20:30N 37°45' W 122°21'0 0.0
2017-Dec-29 20:00N 37°45' W 122°21'0 0.0
2017-Dec-29 19:30N 37°45' W 122°21'0 0.0
2017-Dec-29 19:00N 37°45' W 122°21'0 0.1
2017-Dec-29 18:30N 37°45' W 122°21'0 0.0
2017-Dec-29 18:00N 37°45' W 122°21'0 0.1
2017-Dec-29 17:30N 37°45' W 122°21'0 0.4
2017-Dec-29 17:00N 37°45' W 122°21'0 0.2
2017-Dec-29 16:30N 37°45' W 122°21'0 0.1
2017-Dec-29 16:00N 37°45' W 122°20'0 0.0
2017-Dec-29 15:30N 37°45' W 122°20'0 0.0
2017-Dec-29 15:00N 37°45' W 122°20'0 0.0
2017-Dec-29 14:30N 37°45' W 122°20'0 0.0
2017-Dec-29 14:00N 37°45' W 122°20'0 0.0
2017-Dec-29 13:30N 37°45' W 122°20'0 0.0
2017-Dec-29 13:00N 37°45' W 122°20'0 0.0
2017-Dec-29 12:30N 37°45' W 122°20'0 0.0
2017-Dec-29 12:00N 37°45' W 122°20'0 0.0
2017-Dec-29 11:30N 37°45' W 122°20'0 0.0
2017-Dec-29 11:00N 37°45' W 122°20'0 0.2
2017-Dec-29 10:30N 37°45' W 122°21'0 0.3
2017-Dec-29 10:00N 37°45' W 122°21'0 0.1
2017-Dec-29 09:30N 37°45' W 122°21'0 0.0
2017-Dec-29 09:00N 37°45' W 122°21'0 0.0
2017-Dec-29 08:30N 37°45' W 122°21'0 0.0
2017-Dec-29 08:00N 37°45' W 122°21'0 0.0
2017-Dec-29 07:30N 37°45' W 122°21'0 0.1
2017-Dec-29 07:00N 37°45' W 122°21'0 0.0
2017-Dec-29 06:30N 37°45' W 122°21'0 0.2
2017-Dec-29 06:00N 37°45' W 122°21'0 0.3
2017-Dec-29 05:30N 37°45' W 122°21'0 0.1
2017-Dec-29 05:00N 37°45' W 122°21'0 0.1
2017-Dec-29 04:30N 37°45' W 122°20'0 0.0
2017-Dec-29 04:00N 37°45' W 122°20'0 0.0
2017-Dec-29 03:30N 37°45' W 122°20'0 0.0
2017-Dec-29 03:00N 37°45' W 122°20'0 0.0
2017-Dec-29 02:30N 37°45' W 122°20'0 0.0
2017-Dec-29 02:00N 37°45' W 122°20'0 0.0
2017-Dec-29 01:30N 37°45' W 122°20'0 0.0
2017-Dec-29 01:00N 37°45' W 122°20'0 0.0
2017-Dec-29 00:30N 37°45' W 122°20'0 0.1
2017-Dec-29 00:00N 37°45' W 122°21'0 0.2
2017-Dec-28 23:30N 37°45' W 122°21'0 0.3
2017-Dec-28 23:00N 37°45' W 122°21'0 0.1
2017-Dec-28 22:30N 37°45' W 122°21'0 0.0
2017-Dec-28 22:00N 37°45' W 122°21'0 0.0
2017-Dec-28 21:30N 37°45' W 122°21'0 0.0
2017-Dec-28 21:00N 37°45' W 122°21'0 0.1
2017-Dec-28 20:30N 37°45' W 122°21'0 0.0
2017-Dec-28 20:00N 37°45' W 122°21'0 0.1
2017-Dec-28 19:30N 37°45' W 122°21'0 0.1
2017-Dec-28 19:00N 37°45' W 122°21'0 0.1
2017-Dec-28 18:30N 37°45' W 122°21'0 0.1
2017-Dec-28 17:57N 37°45' W 122°21'0 0.1
2017-Dec-28 17:30N 37°45' W 122°21'0 0.1
2017-Dec-28 17:00N 37°45' W 122°21'0 0.3
2017-Dec-28 16:30N 37°45' W 122°21'0 0.3
2017-Dec-28 16:00N 37°45' W 122°21'0 0.1
2017-Dec-28 15:30N 37°45' W 122°21'0 0.0
2017-Dec-28 15:00N 37°45' W 122°21'0 0.1
2017-Dec-28 14:30N 37°45' W 122°20'0 0.0
2017-Dec-28 14:00N 37°45' W 122°20'0 0.0
2017-Dec-28 13:30N 37°45' W 122°20'0 0.0
2017-Dec-28 13:00N 37°45' W 122°20'0 0.0
2017-Dec-28 12:30N 37°45' W 122°20'0 0.0
2017-Dec-28 12:00N 37°45' W 122°20'0 0.0
2017-Dec-28 11:30N 37°45' W 122°20'0 0.0
2017-Dec-28 11:00N 37°45' W 122°20'0 0.0
2017-Dec-28 10:30N 37°45' W 122°20'0 0.0
2017-Dec-28 10:00N 37°45' W 122°20'0 0.3
2017-Dec-28 09:30N 37°45' W 122°21'0 0.3
2017-Dec-28 09:00N 37°45' W 122°21'0 0.1
2017-Dec-28 08:30N 37°45' W 122°21'0 0.1
2017-Dec-28 08:00N 37°45' W 122°21'0 0.0
2017-Dec-28 07:30N 37°45' W 122°21'0 0.0
2017-Dec-28 07:00N 37°45' W 122°21'0 0.0
2017-Dec-28 06:30N 37°45' W 122°21'0 0.0
2017-Dec-28 06:00N 37°45' W 122°21'0 0.0
2017-Dec-28 05:30N 37°45' W 122°21'0 0.3
2017-Dec-28 05:00N 37°45' W 122°20'0 0.4
2017-Dec-28 04:30N 37°45' W 122°20'0 0.0
2017-Dec-28 04:00N 37°45' W 122°20'0 0.1
2017-Dec-28 03:30N 37°45' W 122°21'0 0.0
2017-Dec-28 03:00N 37°45' W 122°21'0 0.1
2017-Dec-28 02:30N 37°45' W 122°20'0 0.0
2017-Dec-28 02:00N 37°45' W 122°20'0 0.0
2017-Dec-28 01:30N 37°45' W 122°20'0 0.0
2017-Dec-28 01:00N 37°45' W 122°20'0 0.0
2017-Dec-28 00:30N 37°45' W 122°20'0 0.1
2017-Dec-28 00:00N 37°45' W 122°21'0 0.0
2017-Dec-27 23:30N 37°45' W 122°21'0 0.0
2017-Dec-27 23:00N 37°45' W 122°21'0 0.1
2017-Dec-27 22:30N 37°45' W 122°21'0 0.4
2017-Dec-27 22:00N 37°45' W 122°21'0 0.1
2017-Dec-27 21:30N 37°45' W 122°21'0 0.0
2017-Dec-27 21:00N 37°45' W 122°21'0 0.0
2017-Dec-27 20:30N 37°45' W 122°21'0 0.0
2017-Dec-27 20:00N 37°45' W 122°21'0 0.0
2017-Dec-27 19:30N 37°45' W 122°21'0 0.0
2017-Dec-27 19:00N 37°45' W 122°21'0 0.0
2017-Dec-27 18:30N 37°45' W 122°21'0 0.0
2017-Dec-27 18:00N 37°45' W 122°21'0 0.1
2017-Dec-27 17:30N 37°45' W 122°21'0 0.1
2017-Dec-27 17:00N 37°45' W 122°21'0 0.0
2017-Dec-27 16:30N 37°45' W 122°21'0 0.0
2017-Dec-27 16:00N 37°45' W 122°21'0 0.4
2017-Dec-27 15:30N 37°45' W 122°21'0 0.2
2017-Dec-27 15:00N 37°45' W 122°21'0 0.0
2017-Dec-27 14:30N 37°45' W 122°21'0 0.0
2017-Dec-27 14:00N 37°45' W 122°21'0 0.1
2017-Dec-27 13:30N 37°45' W 122°20'0 0.0
2017-Dec-27 13:00N 37°45' W 122°20'0 0.0
2017-Dec-27 12:30N 37°45' W 122°20'0 0.0
2017-Dec-27 12:00N 37°45' W 122°20'0 0.0
2017-Dec-27 11:30N 37°45' W 122°20'0 0.0
2017-Dec-27 11:00N 37°45' W 122°20'0 0.0
2017-Dec-27 10:30N 37°45' W 122°20'0 0.1
2017-Dec-27 10:00N 37°45' W 122°21'0 0.0
2017-Dec-27 09:30N 37°45' W 122°21'0 0.0
2017-Dec-27 09:00N 37°45' W 122°21'0 0.2
2017-Dec-27 08:30N 37°45' W 122°21'0 0.2
2017-Dec-27 08:00N 37°45' W 122°21'0 0.0
2017-Dec-27 07:30N 37°45' W 122°21'0 0.0
2017-Dec-27 07:00N 37°45' W 122°21'0 0.0
2017-Dec-27 06:30N 37°45' W 122°21'0 0.0
2017-Dec-27 06:00N 37°45' W 122°21'0 0.1
2017-Dec-27 05:30N 37°45' W 122°21'0 0.0
2017-Dec-27 05:00N 37°45' W 122°21'0 0.0
2017-Dec-27 04:30N 37°45' W 122°21'0 0.1
2017-Dec-27 04:00N 37°45' W 122°21'0 0.1
2017-Dec-27 03:30N 37°45' W 122°21'0 0.2
2017-Dec-27 03:00N 37°45' W 122°20'0 0.2
2017-Dec-27 02:30N 37°45' W 122°20'0 0.1
2017-Dec-27 02:00N 37°45' W 122°20'0 0.1
2017-Dec-27 01:30N 37°45' W 122°20'0 0.0
2017-Dec-27 01:00N 37°45' W 122°20'0 0.0
2017-Dec-27 00:30N 37°45' W 122°20'0 0.0
2017-Dec-27 00:00N 37°45' W 122°20'0 0.0
2017-Dec-26 23:30N 37°45' W 122°20'0 0.0
2017-Dec-26 23:00N 37°45' W 122°20'0 0.1
2017-Dec-26 22:30N 37°45' W 122°21'0 0.0
2017-Dec-26 22:00N 37°45' W 122°21'0 0.0
2017-Dec-26 21:30N 37°45' W 122°21'0 0.2
2017-Dec-26 21:00N 37°45' W 122°21'0 0.3
2017-Dec-26 20:30N 37°45' W 122°21'0 0.0
2017-Dec-26 20:00N 37°45' W 122°21'0 0.0
2017-Dec-26 19:30N 37°45' W 122°21'0 0.0
2017-Dec-26 19:00N 37°45' W 122°21'0 0.0
2017-Dec-26 18:30N 37°45' W 122°21'0 0.0
2017-Dec-26 18:00N 37°45' W 122°21'0 0.1
2017-Dec-26 17:30N 37°45' W 122°21'0 0.0
2017-Dec-26 17:00N 37°45' W 122°21'0 0.0
2017-Dec-26 16:30N 37°45' W 122°21'0 0.1
2017-Dec-26 16:00N 37°45' W 122°21'0 0.0
2017-Dec-26 15:30N 37°45' W 122°21'0 0.1
2017-Dec-26 15:00N 37°45' W 122°21'0 0.4
2017-Dec-26 14:30N 37°45' W 122°21'0 0.1
2017-Dec-26 14:00N 37°45' W 122°21'0 0.0
2017-Dec-26 13:30N 37°45' W 122°21'0 0.1
2017-Dec-26 13:00N 37°45' W 122°20'0 0.0
2017-Dec-26 12:30N 37°45' W 122°20'0 0.0
2017-Dec-26 12:00N 37°45' W 122°20'0 0.0
2017-Dec-26 11:30N 37°45' W 122°20'0 0.0
2017-Dec-26 11:00N 37°45' W 122°20'0 0.0
2017-Dec-26 10:30N 37°45' W 122°20'0 0.0
2017-Dec-26 10:00N 37°45' W 122°20'0 0.1
2017-Dec-26 09:30N 37°45' W 122°21'0 0.0
2017-Dec-26 09:00N 37°45' W 122°21'0 0.0
2017-Dec-26 08:30N 37°45' W 122°21'0 0.3
2017-Dec-26 08:00N 37°45' W 122°21'0 0.3
2017-Dec-26 07:30N 37°45' W 122°21'0 0.1
2017-Dec-26 07:00N 37°45' W 122°21'0 0.1
2017-Dec-26 06:30N 37°45' W 122°21'0 0.0
2017-Dec-26 06:00N 37°45' W 122°21'0 0.0
2017-Dec-26 05:30N 37°45' W 122°21'0 0.0
2017-Dec-26 05:00N 37°45' W 122°21'0 0.0
2017-Dec-26 04:30N 37°45' W 122°21'0 0.0
2017-Dec-26 04:00N 37°45' W 122°21'0 0.0
2017-Dec-26 03:30N 37°45' W 122°21'0 0.0
2017-Dec-26 03:00N 37°45' W 122°21'0 0.4
2017-Dec-26 02:30N 37°45' W 122°21'0 0.3
2017-Dec-26 02:00N 37°45' W 122°21'0 0.1
2017-Dec-26 01:30N 37°45' W 122°20'0 0.0
2017-Dec-26 01:00N 37°45' W 122°20'  
Track history (hours):
 
Tides and Currents Weather Stations Pressure Air Temp Water Temp Dewpoint Dewpoint Depression Visibility Wind Speed Wind Dir Waves Ship Positions

Shanghai Dawn

Last reported at 2018-Jan-05 01:00 UTC. Time now 2018-Jan-19 09:20 UTC.
Position N 36°50' W 124°24'.
Warning: this ship's position is 14 days out of date.

Length 246 m; draft 7.8 m.

Type: Tanker. MMSI: 356075000.

Date/timePositionNaut miles runAvg speedWind from/ knotsBaromVisibWave heightAir tempDewpointWater temp
2018-Jan-05 01:00N 36°50' W 124°24'2312.1
2018-Jan-04 23:05N 37°04' W 124°01'312.1
2018-Jan-04 22:51N 37°06' W 123°58'812.1
2018-Jan-04 22:12N 37°10' W 123°50'411.9
2018-Jan-04 21:51N 37°13' W 123°45'412.0
2018-Jan-04 21:31N 37°15' W 123°41'712.2
2018-Jan-04 20:55N 37°19' W 123°33'512.2
2018-Jan-04 20:31N 37°21' W 123°28'612.1
2018-Jan-04 20:01N 37°25' W 123°22'1012.5
2018-Jan-04 19:14N 37°30' W 123°12'312.9
2018-Jan-04 19:00N 37°32' W 123°09'612.7
2018-Jan-04 18:30N 37°35' W 123°02'612.2
2018-Jan-04 18:01N 37°39' W 122°55'612.1
2018-Jan-04 17:30N 37°42' W 122°49'612.1
2018-Jan-04 17:01N 37°45' W 122°43'5 9.2
2018-Jan-04 16:31N 37°46' W 122°37'611.6
2018-Jan-04 16:01N 37°49' W 122°30'510.6
2018-Jan-04 15:31N 37°50' W 122°24'4 8.8
2018-Jan-04 15:01N 37°46' W 122°21'0 0.3
2018-Jan-04 14:30N 37°46' W 122°21'0 0.0
2018-Jan-04 14:00N 37°46' W 122°21'0 0.0
2018-Jan-04 13:30N 37°46' W 122°21'0 0.0
2018-Jan-04 13:00N 37°46' W 122°21'0 0.0
2018-Jan-04 12:30N 37°46' W 122°21'0 0.1
2018-Jan-04 12:00N 37°46' W 122°21'0 0.1
2018-Jan-04 11:30N 37°46' W 122°21'0 0.2
2018-Jan-04 11:00N 37°46' W 122°21'0 0.3
2018-Jan-04 10:30N 37°45' W 122°21'0 0.1
2018-Jan-04 10:00N 37°45' W 122°21'0 0.0
2018-Jan-04 09:30N 37°45' W 122°21'0 0.0
2018-Jan-04 09:00N 37°45' W 122°21'1 1.7
2018-Jan-04 08:30N 37°46' W 122°22'5 9.7
2018-Jan-04 08:00N 37°50' W 122°24'510.5
2018-Jan-04 07:30N 37°55' W 122°27'5 9.7
2018-Jan-04 07:00N 37°60' W 122°25'510.8
2018-Jan-04 06:30N 38°03' W 122°20'612.4
2018-Jan-04 06:00N 38°03' W 122°11'3 0.3
2018-Jan-03 19:47N 38°02' W 122°08'0 0.0
2018-Jan-03 12:41N 38°02' W 122°08'0 0.0
2018-Jan-02 06:53N 38°02' W 122°08'0 0.0
2018-Jan-02 06:23N 38°02' W 122°08'0 0.0
2017-Dec-31 07:41N 38°02' W 122°08'0 1.0
2017-Dec-31 07:30N 38°02' W 122°08'2 4.4
2017-Dec-31 07:00N 38°03' W 122°11'4 8.7
2017-Dec-31 06:30N 38°04' W 122°16'4 7.5
2017-Dec-31 06:00N 38°03' W 122°21'4 8.9
2017-Dec-31 05:30N 37°60' W 122°25'611.0
2017-Dec-31 05:00N 37°54' W 122°27'510.5
2017-Dec-31 04:30N 37°50' W 122°24'4 8.7
2017-Dec-31 04:00N 37°46' W 122°21'1 2.5
2017-Dec-31 03:30N 37°45' W 122°21'0 0.1
2017-Dec-31 03:00N 37°45' W 122°20'0 0.0
2017-Dec-31 02:30N 37°45' W 122°20'0 0.1
2017-Dec-31 02:00N 37°45' W 122°21'0 0.0
2017-Dec-31 01:30N 37°45' W 122°21'0 0.4
2017-Dec-31 01:00N 37°45' W 122°21'0 0.2
2017-Dec-31 00:30N 37°45' W 122°21'0 0.0
2017-Dec-31 00:00N 37°45' W 122°21'0 0.0
2017-Dec-30 23:30N 37°45' W 122°21'0 0.0
2017-Dec-30 23:00N 37°45' W 122°21'0 0.0
2017-Dec-30 22:30N 37°45' W 122°21'0 0.0
2017-Dec-30 22:00N 37°45' W 122°21'0 0.0
2017-Dec-30 21:30N 37°45' W 122°21'0 0.0
2017-Dec-30 21:00N 37°45' W 122°21'0 0.0
2017-Dec-30 20:27N 37°45' W 122°21'0 0.0
2017-Dec-30 20:00N 37°45' W 122°21'0 0.0
2017-Dec-30 19:30N 37°45' W 122°21'0 0.0
2017-Dec-30 18:57N 37°45' W 122°21'0 0.0
2017-Dec-30 18:30N 37°45' W 122°21'0 0.1
2017-Dec-30 18:00N 37°45' W 122°21'0 0.4
2017-Dec-30 17:30N 37°45' W 122°21'0 0.1
2017-Dec-30 17:00N 37°45' W 122°21'0 0.1
2017-Dec-30 16:30N 37°45' W 122°20'0 0.0
2017-Dec-30 16:00N 37°45' W 122°20'0 0.0
2017-Dec-30 15:27N 37°45' W 122°20'0 0.0
2017-Dec-30 15:00N 37°45' W 122°20'0 0.0
2017-Dec-30 14:30N 37°45' W 122°20'0 0.0
2017-Dec-30 14:00N 37°45' W 122°20'0 0.0
2017-Dec-30 13:30N 37°45' W 122°20'0 0.0
2017-Dec-30 13:00N 37°45' W 122°20'0 0.0
2017-Dec-30 12:30N 37°45' W 122°20'0 0.0
2017-Dec-30 12:00N 37°45' W 122°20'0 0.5
2017-Dec-30 11:30N 37°45' W 122°21'0 0.3
2017-Dec-30 11:00N 37°45' W 122°21'0 0.0
2017-Dec-30 10:30N 37°45' W 122°21'0 0.1
2017-Dec-30 10:00N 37°45' W 122°21'0 0.1
2017-Dec-30 09:30N 37°45' W 122°21'0 0.0
2017-Dec-30 09:00N 37°45' W 122°21'0 0.0
2017-Dec-30 08:30N 37°45' W 122°21'0 0.0
2017-Dec-30 08:00N 37°45' W 122°21'0 0.1
2017-Dec-30 07:30N 37°45' W 122°21'0 0.1
2017-Dec-30 07:00N 37°45' W 122°21'0 0.3
2017-Dec-30 06:30N 37°45' W 122°21'0 0.2
2017-Dec-30 06:00N 37°45' W 122°21'0 0.1
2017-Dec-30 05:30N 37°45' W 122°20'0 0.0
2017-Dec-30 05:00N 37°45' W 122°20'0 0.0
2017-Dec-30 04:30N 37°45' W 122°20'0 0.0
2017-Dec-30 04:00N 37°45' W 122°20'0 0.0
2017-Dec-30 03:30N 37°45' W 122°20'0 0.1
2017-Dec-30 03:00N 37°45' W 122°21'0 0.1
2017-Dec-30 02:30N 37°45' W 122°20'0 0.0
2017-Dec-30 02:00N 37°45' W 122°20'0 0.0
2017-Dec-30 01:30N 37°45' W 122°20'0 0.1
2017-Dec-30 01:00N 37°45' W 122°21'0 0.0
2017-Dec-30 00:30N 37°45' W 122°21'0 0.4
2017-Dec-30 00:00N 37°45' W 122°21'0 0.2
2017-Dec-29 23:30N 37°45' W 122°21'0 0.0
2017-Dec-29 23:00N 37°45' W 122°21'0 0.0
2017-Dec-29 22:30N 37°45' W 122°21'0 0.0
2017-Dec-29 22:00N 37°45' W 122°21'0 0.0
2017-Dec-29 21:30N 37°45' W 122°21'0 0.0
2017-Dec-29 21:00N 37°45' W 122°21'0 0.0
2017-Dec-29 20:30N 37°45' W 122°21'0 0.0
2017-Dec-29 20:00N 37°45' W 122°21'0 0.0
2017-Dec-29 19:30N 37°45' W 122°21'0 0.0
2017-Dec-29 19:00N 37°45' W 122°21'0 0.1
2017-Dec-29 18:30N 37°45' W 122°21'0 0.0
2017-Dec-29 18:00N 37°45' W 122°21'0 0.1
2017-Dec-29 17:30N 37°45' W 122°21'0 0.4
2017-Dec-29 17:00N 37°45' W 122°21'0 0.2
2017-Dec-29 16:30N 37°45' W 122°21'0 0.1
2017-Dec-29 16:00N 37°45' W 122°20'0 0.0
2017-Dec-29 15:30N 37°45' W 122°20'0 0.0
2017-Dec-29 15:00N 37°45' W 122°20'0 0.0
2017-Dec-29 14:30N 37°45' W 122°20'0 0.0
2017-Dec-29 14:00N 37°45' W 122°20'0 0.0
2017-Dec-29 13:30N 37°45' W 122°20'0 0.0
2017-Dec-29 13:00N 37°45' W 122°20'0 0.0
2017-Dec-29 12:30N 37°45' W 122°20'0 0.0
2017-Dec-29 12:00N 37°45' W 122°20'0 0.0
2017-Dec-29 11:30N 37°45' W 122°20'0 0.0
2017-Dec-29 11:00N 37°45' W 122°20'0 0.2
2017-Dec-29 10:30N 37°45' W 122°21'0 0.3
2017-Dec-29 10:00N 37°45' W 122°21'0 0.1
2017-Dec-29 09:30N 37°45' W 122°21'0 0.0
2017-Dec-29 09:00N 37°45' W 122°21'0 0.0
2017-Dec-29 08:30N 37°45' W 122°21'0 0.0
2017-Dec-29 08:00N 37°45' W 122°21'0 0.0
2017-Dec-29 07:30N 37°45' W 122°21'0 0.1
2017-Dec-29 07:00N 37°45' W 122°21'0 0.0
2017-Dec-29 06:30N 37°45' W 122°21'0 0.2
2017-Dec-29 06:00N 37°45' W 122°21'0 0.3
2017-Dec-29 05:30N 37°45' W 122°21'0 0.1
2017-Dec-29 05:00N 37°45' W 122°21'0 0.1
2017-Dec-29 04:30N 37°45' W 122°20'0 0.0
2017-Dec-29 04:00N 37°45' W 122°20'0 0.0
2017-Dec-29 03:30N 37°45' W 122°20'0 0.0
2017-Dec-29 03:00N 37°45' W 122°20'0 0.0
2017-Dec-29 02:30N 37°45' W 122°20'0 0.0
2017-Dec-29 02:00N 37°45' W 122°20'0 0.0
2017-Dec-29 01:30N 37°45' W 122°20'0 0.0
2017-Dec-29 01:00N 37°45' W 122°20'0 0.0
2017-Dec-29 00:30N 37°45' W 122°20'0 0.1
2017-Dec-29 00:00N 37°45' W 122°21'0 0.2
2017-Dec-28 23:30N 37°45' W 122°21'0 0.3
2017-Dec-28 23:00N 37°45' W 122°21'0 0.1
2017-Dec-28 22:30N 37°45' W 122°21'0 0.0
2017-Dec-28 22:00N 37°45' W 122°21'0 0.0
2017-Dec-28 21:30N 37°45' W 122°21'0 0.0
2017-Dec-28 21:00N 37°45' W 122°21'0 0.1
2017-Dec-28 20:30N 37°45' W 122°21'0 0.0
2017-Dec-28 20:00N 37°45' W 122°21'0 0.1
2017-Dec-28 19:30N 37°45' W 122°21'0 0.1
2017-Dec-28 19:00N 37°45' W 122°21'0 0.1
2017-Dec-28 18:30N 37°45' W 122°21'0 0.1
2017-Dec-28 17:57N 37°45' W 122°21'0 0.1
2017-Dec-28 17:30N 37°45' W 122°21'0 0.1
2017-Dec-28 17:00N 37°45' W 122°21'0 0.3
2017-Dec-28 16:30N 37°45' W 122°21'0 0.3
2017-Dec-28 16:00N 37°45' W 122°21'0 0.1
2017-Dec-28 15:30N 37°45' W 122°21'0 0.0
2017-Dec-28 15:00N 37°45' W 122°21'0 0.1
2017-Dec-28 14:30N 37°45' W 122°20'0 0.0
2017-Dec-28 14:00N 37°45' W 122°20'0 0.0
2017-Dec-28 13:30N 37°45' W 122°20'0 0.0
2017-Dec-28 13:00N 37°45' W 122°20'0 0.0
2017-Dec-28 12:30N 37°45' W 122°20'0 0.0
2017-Dec-28 12:00N 37°45' W 122°20'0 0.0
2017-Dec-28 11:30N 37°45' W 122°20'0 0.0
2017-Dec-28 11:00N 37°45' W 122°20'0 0.0
2017-Dec-28 10:30N 37°45' W 122°20'0 0.0
2017-Dec-28 10:00N 37°45' W 122°20'0 0.3
2017-Dec-28 09:30N 37°45' W 122°21'0 0.3
2017-Dec-28 09:00N 37°45' W 122°21'0 0.1
2017-Dec-28 08:30N 37°45' W 122°21'0 0.1
2017-Dec-28 08:00N 37°45' W 122°21'0 0.0
2017-Dec-28 07:30N 37°45' W 122°21'0 0.0
2017-Dec-28 07:00N 37°45' W 122°21'0 0.0
2017-Dec-28 06:30N 37°45' W 122°21'0 0.0
2017-Dec-28 06:00N 37°45' W 122°21'0 0.0
2017-Dec-28 05:30N 37°45' W 122°21'0 0.3
2017-Dec-28 05:00N 37°45' W 122°20'0 0.4
2017-Dec-28 04:30N 37°45' W 122°20'0 0.0
2017-Dec-28 04:00N 37°45' W 122°20'0 0.1
2017-Dec-28 03:30N 37°45' W 122°21'0 0.0
2017-Dec-28 03:00N 37°45' W 122°21'0 0.1
2017-Dec-28 02:30N 37°45' W 122°20'0 0.0
2017-Dec-28 02:00N 37°45' W 122°20'0 0.0
2017-Dec-28 01:30N 37°45' W 122°20'0 0.0
2017-Dec-28 01:00N 37°45' W 122°20'0 0.0
2017-Dec-28 00:30N 37°45' W 122°20'0 0.1
2017-Dec-28 00:00N 37°45' W 122°21'0 0.0
2017-Dec-27 23:30N 37°45' W 122°21'0 0.0
2017-Dec-27 23:00N 37°45' W 122°21'0 0.1
2017-Dec-27 22:30N 37°45' W 122°21'0 0.4
2017-Dec-27 22:00N 37°45' W 122°21'0 0.1
2017-Dec-27 21:30N 37°45' W 122°21'0 0.0
2017-Dec-27 21:00N 37°45' W 122°21'0 0.0
2017-Dec-27 20:30N 37°45' W 122°21'0 0.0
2017-Dec-27 20:00N 37°45' W 122°21'0 0.0
2017-Dec-27 19:30N 37°45' W 122°21'0 0.0
2017-Dec-27 19:00N 37°45' W 122°21'0 0.0
2017-Dec-27 18:30N 37°45' W 122°21'0 0.0
2017-Dec-27 18:00N 37°45' W 122°21'0 0.1
2017-Dec-27 17:30N 37°45' W 122°21'0 0.1
2017-Dec-27 17:00N 37°45' W 122°21'0 0.0
2017-Dec-27 16:30N 37°45' W 122°21'0 0.0
2017-Dec-27 16:00N 37°45' W 122°21'0 0.4
2017-Dec-27 15:30N 37°45' W 122°21'0 0.2
2017-Dec-27 15:00N 37°45' W 122°21'0 0.0
2017-Dec-27 14:30N 37°45' W 122°21'0 0.0
2017-Dec-27 14:00N 37°45' W 122°21'0 0.1
2017-Dec-27 13:30N 37°45' W 122°20'0 0.0
2017-Dec-27 13:00N 37°45' W 122°20'0 0.0
2017-Dec-27 12:30N 37°45' W 122°20'0 0.0
2017-Dec-27 12:00N 37°45' W 122°20'0 0.0
2017-Dec-27 11:30N 37°45' W 122°20'0 0.0
2017-Dec-27 11:00N 37°45' W 122°20'0 0.0
2017-Dec-27 10:30N 37°45' W 122°20'0 0.1
2017-Dec-27 10:00N 37°45' W 122°21'0 0.0
2017-Dec-27 09:30N 37°45' W 122°21'0 0.0
2017-Dec-27 09:00N 37°45' W 122°21'0 0.2
2017-Dec-27 08:30N 37°45' W 122°21'0 0.2
2017-Dec-27 08:00N 37°45' W 122°21'0 0.0
2017-Dec-27 07:30N 37°45' W 122°21'0 0.0
2017-Dec-27 07:00N 37°45' W 122°21'0 0.0
2017-Dec-27 06:30N 37°45' W 122°21'0 0.0
2017-Dec-27 06:00N 37°45' W 122°21'0 0.1
2017-Dec-27 05:30N 37°45' W 122°21'0 0.0
2017-Dec-27 05:00N 37°45' W 122°21'0 0.0
2017-Dec-27 04:30N 37°45' W 122°21'0 0.1
2017-Dec-27 04:00N 37°45' W 122°21'0 0.1
2017-Dec-27 03:30N 37°45' W 122°21'0 0.2
2017-Dec-27 03:00N 37°45' W 122°20'0 0.2
2017-Dec-27 02:30N 37°45' W 122°20'0 0.1
2017-Dec-27 02:00N 37°45' W 122°20'0 0.1
2017-Dec-27 01:30N 37°45' W 122°20'0 0.0
2017-Dec-27 01:00N 37°45' W 122°20'0 0.0
2017-Dec-27 00:30N 37°45' W 122°20'0 0.0
2017-Dec-27 00:00N 37°45' W 122°20'0 0.0
2017-Dec-26 23:30N 37°45' W 122°20'0 0.0
2017-Dec-26 23:00N 37°45' W 122°20'0 0.1
2017-Dec-26 22:30N 37°45' W 122°21'0 0.0
2017-Dec-26 22:00N 37°45' W 122°21'0 0.0
2017-Dec-26 21:30N 37°45' W 122°21'0 0.2
2017-Dec-26 21:00N 37°45' W 122°21'0 0.3
2017-Dec-26 20:30N 37°45' W 122°21'0 0.0
2017-Dec-26 20:00N 37°45' W 122°21'0 0.0
2017-Dec-26 19:30N 37°45' W 122°21'0 0.0
2017-Dec-26 19:00N 37°45' W 122°21'0 0.0
2017-Dec-26 18:30N 37°45' W 122°21'0 0.0
2017-Dec-26 18:00N 37°45' W 122°21'0 0.1
2017-Dec-26 17:30N 37°45' W 122°21'0 0.0
2017-Dec-26 17:00N 37°45' W 122°21'0 0.0
2017-Dec-26 16:30N 37°45' W 122°21'0 0.1
2017-Dec-26 16:00N 37°45' W 122°21'0 0.0
2017-Dec-26 15:30N 37°45' W 122°21'0 0.1
2017-Dec-26 15:00N 37°45' W 122°21'0 0.4
2017-Dec-26 14:30N 37°45' W 122°21'0 0.1
2017-Dec-26 14:00N 37°45' W 122°21'0 0.0
2017-Dec-26 13:30N 37°45' W 122°21'0 0.1
2017-Dec-26 13:00N 37°45' W 122°20'0 0.0
2017-Dec-26 12:30N 37°45' W 122°20'0 0.0
2017-Dec-26 12:00N 37°45' W 122°20'0 0.0
2017-Dec-26 11:30N 37°45' W 122°20'0 0.0
2017-Dec-26 11:00N 37°45' W 122°20'0 0.0
2017-Dec-26 10:30N 37°45' W 122°20'0 0.0
2017-Dec-26 10:00N 37°45' W 122°20'0 0.1
2017-Dec-26 09:30N 37°45' W 122°21'0 0.0
2017-Dec-26 09:00N 37°45' W 122°21'0 0.0
2017-Dec-26 08:30N 37°45' W 122°21'0 0.3
2017-Dec-26 08:00N 37°45' W 122°21'0 0.3
2017-Dec-26 07:30N 37°45' W 122°21'0 0.1
2017-Dec-26 07:00N 37°45' W 122°21'0 0.1
2017-Dec-26 06:30N 37°45' W 122°21'0 0.0
2017-Dec-26 06:00N 37°45' W 122°21'0 0.0
2017-Dec-26 05:30N 37°45' W 122°21'0 0.0
2017-Dec-26 05:00N 37°45' W 122°21'0 0.0
2017-Dec-26 04:30N 37°45' W 122°21'0 0.0
2017-Dec-26 04:00N 37°45' W 122°21'0 0.0
2017-Dec-26 03:30N 37°45' W 122°21'0 0.0
2017-Dec-26 03:00N 37°45' W 122°21'0 0.4
2017-Dec-26 02:30N 37°45' W 122°21'0 0.3
2017-Dec-26 02:00N 37°45' W 122°21'0 0.1
2017-Dec-26 01:30N 37°45' W 122°20'0 0.0
2017-Dec-26 01:00N 37°45' W 122°20'  

Dump ship's entire track history